createdAt,value
2023-05-19T00:00:57.938Z,12.90
2023-05-19T00:03:25.030Z,12.60
2023-05-19T00:05:53.776Z,12.50
2023-05-19T00:08:22.592Z,12.40
2023-05-19T00:10:49.599Z,12.50
2023-05-19T00:13:16.703Z,12.50
2023-05-19T00:15:43.650Z,12.60
2023-05-19T00:18:14.221Z,12.50
2023-05-19T00:20:41.327Z,12.30
2023-05-19T00:23:08.330Z,12.10
2023-05-19T00:25:35.065Z,11.90
2023-05-19T00:28:02.938Z,11.70
2023-05-19T00:30:30.554Z,11.70
2023-05-19T00:32:57.566Z,11.70
2023-05-19T00:35:24.549Z,11.60
2023-05-19T00:37:51.156Z,11.60
2023-05-19T00:40:19.076Z,11.50
2023-05-19T00:42:45.839Z,11.50
2023-05-19T00:45:12.461Z,11.40
2023-05-19T00:47:39.475Z,11.30
2023-05-19T00:50:06.628Z,11.30
2023-05-19T00:52:33.395Z,11.40
2023-05-19T00:55:00.184Z,11.40
2023-05-19T00:57:27.729Z,11.40
2023-05-19T00:59:54.544Z,11.40
2023-05-19T01:02:21.598Z,11.40
2023-05-19T01:04:49.724Z,11.40
2023-05-19T01:07:16.555Z,11.20
2023-05-19T01:09:43.458Z,10.90
2023-05-19T01:12:10.176Z,10.80
2023-05-19T01:14:36.941Z,10.70
2023-05-19T01:17:21.074Z,10.80
2023-05-19T01:20:08.227Z,10.70
2023-05-19T01:22:37.544Z,10.50
2023-05-19T01:25:42.581Z,10.50
2023-05-19T01:28:33.690Z,10.50
2023-05-19T01:31:01.452Z,10.70
2023-05-19T01:33:30.834Z,10.80
2023-05-19T01:35:59.733Z,10.90
2023-05-19T01:38:28.231Z,10.80
2023-05-19T01:40:57.161Z,10.70
2023-05-19T01:43:25.914Z,10.60
2023-05-19T01:45:53.316Z,10.70
2023-05-19T01:48:20.488Z,10.70
2023-05-19T01:50:47.492Z,10.70
2023-05-19T01:53:14.157Z,10.70
2023-05-19T01:55:50.239Z,10.50
2023-05-19T01:58:35.797Z,10.20
2023-05-19T02:01:40.181Z,10.30
2023-05-19T02:04:18.568Z,10.30
2023-05-19T02:07:09.507Z,10.40
2023-05-19T02:09:59.264Z,10.50
2023-05-19T02:12:34.294Z,10.50
2023-05-19T02:15:13.230Z,10.40
2023-05-19T02:17:47.688Z,10.40
2023-05-19T02:20:15.930Z,10.10
2023-05-19T02:22:42.789Z,10.00
2023-05-19T02:25:10.245Z,10.10
2023-05-19T02:27:38.382Z,10.10
2023-05-19T02:30:06.576Z,10.10
2023-05-19T02:32:33.547Z,10.10
2023-05-19T02:35:00.444Z,10.10
2023-05-19T02:37:28.570Z,10.00
2023-05-19T02:39:55.698Z,10.00
2023-05-19T02:42:22.379Z,9.90
2023-05-19T02:44:49.623Z,9.90
2023-05-19T02:47:16.449Z,9.90
2023-05-19T02:49:44.082Z,9.80
2023-05-19T02:52:12.003Z,9.80
2023-05-19T02:54:39.443Z,9.80
2023-05-19T02:57:06.841Z,9.80
2023-05-19T02:59:33.664Z,9.80
2023-05-19T03:02:01.963Z,9.80
2023-05-19T03:04:29.734Z,9.90
2023-05-19T03:06:57.606Z,9.80
2023-05-19T03:09:24.369Z,9.70
2023-05-19T03:11:50.988Z,9.60
2023-05-19T03:14:18.530Z,9.50
2023-05-19T03:16:45.324Z,9.50
2023-05-19T03:19:12.372Z,9.50
2023-05-19T03:21:39.167Z,9.50
2023-05-19T03:24:06.590Z,9.60
2023-05-19T03:26:33.212Z,9.60
2023-05-19T03:28:59.834Z,9.60
2023-05-19T03:31:26.725Z,9.70
2023-05-19T03:33:53.519Z,9.60
2023-05-19T03:36:20.281Z,9.50
2023-05-19T03:38:46.934Z,9.40
2023-05-19T03:41:13.557Z,9.40
2023-05-19T03:43:40.186Z,9.30
2023-05-19T03:46:06.916Z,9.40
2023-05-19T03:48:33.569Z,9.40
2023-05-19T03:51:00.176Z,9.30
2023-05-19T03:53:26.925Z,9.40
2023-05-19T03:55:53.592Z,9.40
2023-05-19T03:58:20.239Z,9.50
2023-05-19T04:00:46.939Z,9.50
2023-05-19T04:03:13.736Z,9.60
2023-05-19T04:05:40.517Z,9.60
2023-05-19T04:08:07.174Z,9.50
2023-05-19T04:10:34.527Z,9.60
2023-05-19T04:13:01.275Z,9.60
2023-05-19T04:15:28.930Z,9.60
2023-05-19T04:17:56.147Z,9.60
2023-05-19T04:20:22.920Z,9.60
2023-05-19T04:22:49.521Z,9.70
2023-05-19T04:25:16.264Z,9.70
2023-05-19T04:27:42.921Z,9.80
2023-05-19T04:30:09.960Z,9.80
2023-05-19T04:32:37.487Z,9.70
2023-05-19T04:35:04.772Z,9.70
2023-05-19T04:37:31.486Z,9.80
2023-05-19T04:39:58.193Z,9.80
2023-05-19T04:42:26.151Z,9.80
2023-05-19T04:44:52.835Z,9.80
2023-05-19T04:47:21.555Z,9.80
2023-05-19T04:49:48.480Z,9.90
2023-05-19T04:52:15.918Z,10.00
2023-05-19T04:54:42.558Z,10.00
2023-05-19T04:57:10.418Z,10.10
2023-05-19T04:59:37.095Z,10.20
2023-05-19T05:02:06.274Z,10.30
2023-05-19T05:04:35.231Z,10.30
2023-05-19T05:07:01.874Z,10.40
2023-05-19T05:09:28.575Z,10.50
2023-05-19T05:11:55.650Z,10.50
2023-05-19T05:14:22.584Z,10.60
2023-05-19T05:16:50.167Z,10.60
2023-05-19T05:19:17.712Z,10.70
2023-05-19T05:21:44.767Z,10.80
2023-05-19T05:24:12.165Z,10.80
2023-05-19T05:26:39.331Z,10.90
2023-05-19T05:29:07.434Z,11.00
2023-05-19T05:31:34.112Z,11.00
2023-05-19T05:34:01.168Z,11.10
2023-05-19T05:36:28.041Z,11.10
2023-05-19T05:38:54.759Z,11.10
2023-05-19T05:41:22.070Z,11.20
2023-05-19T05:43:48.789Z,11.30
2023-05-19T05:46:15.437Z,11.30
2023-05-19T05:48:42.879Z,11.30
2023-05-19T05:51:10.650Z,11.40
2023-05-19T05:53:42.985Z,11.40
2023-05-19T05:56:10.761Z,11.40
2023-05-19T05:58:37.843Z,11.50
2023-05-19T06:01:05.416Z,11.50
2023-05-19T06:03:33.931Z,11.60
2023-05-19T06:06:01.766Z,11.60
2023-05-19T06:08:28.463Z,11.60
2023-05-19T06:10:55.191Z,11.50
2023-05-19T06:13:23.959Z,11.60
2023-05-19T06:15:51.793Z,11.70
2023-05-19T06:18:18.885Z,11.70
2023-05-19T06:20:45.553Z,11.80
2023-05-19T06:23:12.132Z,11.90
2023-05-19T06:25:38.717Z,12.00
2023-05-19T06:28:05.326Z,12.10
2023-05-19T06:30:32.176Z,12.20
2023-05-19T06:32:59.004Z,12.40
2023-05-19T06:35:25.776Z,12.40
2023-05-19T06:37:53.024Z,12.50
2023-05-19T06:40:22.443Z,12.60
2023-05-19T06:42:49.155Z,12.70
2023-05-19T06:45:15.876Z,12.70
2023-05-19T06:47:42.686Z,12.90
2023-05-19T06:50:10.109Z,13.00
2023-05-19T06:52:37.295Z,13.00
2023-05-19T06:55:04.532Z,13.10
2023-05-19T06:57:31.296Z,13.10
2023-05-19T06:59:57.892Z,13.20
2023-05-19T07:02:26.313Z,13.30
2023-05-19T07:04:53.861Z,13.40
2023-05-19T07:07:20.832Z,13.50
2023-05-19T07:09:47.444Z,13.60
2023-05-19T07:12:14.072Z,13.70
2023-05-19T07:14:43.364Z,13.80
2023-05-19T07:17:09.969Z,13.70
2023-05-19T07:19:36.612Z,13.70
2023-05-19T07:22:05.346Z,13.80
2023-05-19T07:24:32.091Z,13.80
2023-05-19T07:26:58.723Z,13.70
2023-05-19T07:29:25.579Z,13.90
2023-05-19T07:31:54.317Z,14.00
2023-05-19T07:34:23.656Z,14.10
2023-05-19T07:36:51.499Z,14.10
2023-05-19T07:39:18.489Z,14.20
2023-05-19T07:41:45.151Z,14.30
2023-05-19T07:44:11.878Z,14.40
2023-05-19T07:46:39.999Z,14.50
2023-05-19T07:49:06.681Z,14.60
2023-05-19T07:51:33.330Z,14.70
2023-05-19T07:53:59.951Z,14.80
2023-05-19T07:56:27.275Z,14.90
2023-05-19T07:58:53.937Z,14.90
2023-05-19T08:01:20.628Z,15.10
2023-05-19T08:03:47.396Z,15.20
2023-05-19T08:06:16.019Z,15.40
2023-05-19T08:08:42.692Z,15.50
2023-05-19T08:11:09.263Z,15.60
2023-05-19T08:13:37.615Z,15.60
2023-05-19T08:16:05.045Z,15.80
2023-05-19T08:18:31.777Z,16.20
2023-05-19T08:21:01.417Z,16.30
2023-05-19T08:23:28.123Z,16.40
2023-05-19T08:25:54.775Z,16.40
2023-05-19T08:28:21.482Z,16.50
2023-05-19T08:30:48.130Z,16.70
2023-05-19T08:33:14.828Z,16.80
2023-05-19T08:35:41.516Z,17.00
2023-05-19T08:38:08.107Z,17.10
2023-05-19T08:40:37.329Z,17.10
2023-05-19T08:43:05.790Z,17.10
2023-05-19T08:45:34.553Z,17.40
2023-05-19T08:48:01.473Z,17.50
2023-05-19T08:50:30.845Z,17.70
2023-05-19T08:53:32.447Z,17.70
2023-05-19T08:56:14.305Z,17.80
2023-05-19T08:58:43.875Z,17.80
2023-05-19T09:01:14.051Z,17.90
2023-05-19T09:03:41.391Z,17.80
2023-05-19T09:06:08.962Z,17.80
2023-05-19T09:08:37.110Z,18.00
2023-05-19T09:11:03.870Z,18.00
2023-05-19T09:13:30.568Z,17.70
2023-05-19T09:15:57.725Z,17.60
2023-05-19T09:18:26.314Z,17.70
2023-05-19T09:21:00.588Z,17.90
2023-05-19T09:23:30.194Z,17.80
2023-05-19T09:25:58.681Z,17.90
2023-05-19T09:28:33.910Z,17.90
2023-05-19T09:31:11.064Z,17.80
2023-05-19T09:33:44.340Z,18.00
2023-05-19T09:36:14.043Z,18.10
2023-05-19T09:38:41.244Z,18.20
2023-05-19T09:41:08.973Z,18.40
2023-05-19T09:43:36.364Z,18.60
2023-05-19T09:46:13.805Z,18.60
2023-05-19T09:48:41.327Z,18.70
2023-05-19T09:51:10.678Z,18.80
2023-05-19T09:53:38.774Z,18.90
2023-05-19T09:56:08.239Z,19.00
2023-05-19T09:58:35.107Z,19.10
2023-05-19T10:01:04.981Z,19.10
2023-05-19T10:03:35.237Z,18.80
2023-05-19T10:06:03.836Z,18.70
2023-05-19T10:08:31.792Z,18.90
2023-05-19T10:10:59.042Z,18.90
2023-05-19T10:13:26.883Z,19.00
2023-05-19T10:15:58.607Z,19.00
2023-05-19T10:18:27.632Z,18.90
2023-05-19T10:20:54.591Z,19.00
2023-05-19T10:23:23.745Z,19.20
2023-05-19T10:25:54.930Z,19.20
2023-05-19T10:28:25.386Z,19.50
2023-05-19T10:30:56.420Z,19.50
2023-05-19T10:33:41.944Z,19.10
2023-05-19T10:36:46.968Z,18.90
2023-05-19T10:39:26.228Z,18.70
2023-05-19T10:42:21.873Z,18.80
2023-05-19T10:45:11.652Z,19.10
2023-05-19T10:47:41.273Z,18.70
2023-05-19T10:50:10.640Z,18.50
2023-05-19T10:52:38.390Z,18.80
2023-05-19T10:55:11.203Z,18.90
2023-05-19T10:57:37.832Z,19.20
2023-05-19T11:00:28.354Z,19.10
2023-05-19T11:05:52.267Z,19.50
2023-05-19T11:08:36.800Z,19.50
2023-05-19T11:11:16.881Z,19.50
2023-05-19T11:13:49.017Z,19.60
2023-05-19T11:16:19.577Z,19.50
2023-05-19T11:18:52.128Z,19.70
2023-05-19T11:21:20.555Z,19.40
2023-05-19T11:23:47.414Z,19.20
2023-05-19T11:26:14.101Z,19.50
2023-05-19T11:28:41.274Z,19.40
2023-05-19T11:31:10.751Z,19.40
2023-05-19T11:33:39.190Z,19.70
2023-05-19T11:36:06.618Z,19.50
2023-05-19T11:38:36.828Z,19.70
2023-05-19T11:41:03.843Z,19.80
2023-05-19T11:43:30.754Z,19.90
2023-05-19T11:45:57.669Z,20.10
2023-05-19T11:48:27.000Z,20.10
2023-05-19T11:50:56.174Z,19.80
2023-05-19T11:53:23.375Z,19.90
2023-05-19T11:55:50.340Z,20.10
2023-05-19T11:58:17.481Z,20.40
2023-05-19T12:00:47.459Z,20.60
2023-05-19T12:03:15.924Z,20.80
2023-05-19T12:05:48.591Z,20.50
2023-05-19T12:08:20.805Z,20.60
2023-05-19T12:10:54.003Z,20.70
2023-05-19T12:13:22.529Z,20.80
2023-05-19T12:15:52.121Z,19.90
2023-05-19T12:18:19.519Z,19.90
2023-05-19T12:20:46.747Z,20.00
2023-05-19T12:23:14.328Z,20.10
2023-05-19T12:25:41.133Z,20.40
2023-05-19T12:28:07.727Z,20.60
2023-05-19T12:30:35.322Z,20.50
2023-05-19T12:33:02.934Z,20.20
2023-05-19T12:35:36.596Z,20.10
2023-05-19T12:38:09.209Z,20.20
2023-05-19T12:40:37.192Z,20.10
2023-05-19T12:43:05.612Z,20.00
2023-05-19T12:45:37.046Z,20.10
2023-05-19T12:48:11.987Z,20.50
2023-05-19T12:50:38.812Z,20.50
2023-05-19T12:53:10.629Z,20.60
2023-05-19T12:55:44.977Z,20.90
2023-05-19T12:58:13.010Z,21.10
2023-05-19T13:00:45.062Z,21.40
2023-05-19T13:03:18.565Z,21.70
2023-05-19T13:05:47.346Z,21.70
2023-05-19T13:08:24.585Z,21.80
2023-05-19T13:10:51.478Z,20.80
2023-05-19T13:13:19.245Z,20.70
2023-05-19T13:15:50.074Z,20.60
2023-05-19T13:18:17.391Z,20.60
2023-05-19T13:20:45.339Z,20.90
2023-05-19T13:23:12.934Z,21.20
2023-05-19T13:25:41.773Z,21.40
2023-05-19T13:28:09.494Z,21.40
2023-05-19T13:30:38.931Z,21.80
2023-05-19T13:33:06.582Z,21.80
2023-05-19T13:35:42.623Z,21.80
2023-05-19T13:38:10.639Z,21.90
2023-05-19T13:40:37.941Z,22.20
2023-05-19T13:43:04.934Z,22.30
2023-05-19T13:45:31.745Z,22.30
2023-05-19T13:47:58.528Z,22.50
2023-05-19T13:50:25.440Z,22.40
2023-05-19T13:52:52.126Z,22.10
2023-05-19T13:55:21.801Z,22.00
2023-05-19T13:57:49.186Z,22.10
2023-05-19T14:00:17.570Z,22.10
2023-05-19T14:02:46.096Z,22.10
2023-05-19T14:05:13.022Z,22.30
2023-05-19T14:07:39.709Z,22.50
2023-05-19T14:10:07.098Z,22.90
2023-05-19T14:12:49.395Z,23.00
2023-05-19T14:15:23.557Z,23.00
2023-05-19T14:17:50.239Z,22.70
2023-05-19T14:20:17.232Z,22.90
2023-05-19T14:22:43.904Z,23.20
2023-05-19T14:25:10.681Z,23.30
2023-05-19T14:27:39.824Z,23.60
2023-05-19T14:30:07.437Z,23.80
2023-05-19T14:32:34.286Z,23.90
2023-05-19T14:35:00.948Z,23.90
2023-05-19T14:37:30.198Z,23.80
2023-05-19T14:39:57.746Z,23.40
2023-05-19T14:42:24.898Z,23.40
2023-05-19T14:44:51.591Z,23.80
2023-05-19T14:47:18.253Z,23.90
2023-05-19T14:49:47.451Z,23.80
2023-05-19T14:52:14.113Z,24.10
2023-05-19T14:54:42.443Z,24.30
2023-05-19T14:57:09.108Z,24.60
2023-05-19T14:59:38.794Z,24.70
2023-05-19T15:02:07.566Z,24.60
2023-05-19T15:04:35.509Z,24.50
2023-05-19T15:09:31.745Z,24.60
2023-05-19T15:12:00.931Z,24.90
2023-05-19T15:14:28.615Z,25.10
2023-05-19T15:16:57.044Z,24.90
2023-05-19T15:19:23.913Z,24.60
2023-05-19T15:21:51.095Z,24.50
2023-05-19T15:24:17.726Z,24.40
2023-05-19T15:26:44.470Z,24.40
2023-05-19T15:29:11.130Z,24.50
2023-05-19T15:31:38.468Z,24.70
2023-05-19T15:34:05.284Z,24.60
2023-05-19T15:36:33.207Z,24.60
2023-05-19T15:38:59.796Z,24.70
2023-05-19T15:41:26.709Z,24.60
2023-05-19T15:43:53.638Z,24.80
2023-05-19T15:46:20.401Z,25.10
2023-05-19T15:48:47.015Z,25.20
2023-05-19T15:51:13.887Z,25.30
2023-05-19T15:53:40.585Z,25.60
2023-05-19T15:56:07.388Z,25.50
2023-05-19T15:58:34.004Z,25.70
2023-05-19T16:01:01.236Z,25.90
2023-05-19T16:03:28.018Z,26.20
2023-05-19T16:05:54.934Z,26.10
2023-05-19T16:08:21.565Z,26.10
2023-05-19T16:10:48.281Z,25.80
2023-05-19T16:13:14.963Z,25.50
2023-05-19T16:15:43.761Z,24.90
2023-05-19T16:18:12.524Z,24.80
2023-05-19T16:20:39.259Z,25.10
2023-05-19T16:23:05.883Z,25.30
2023-05-19T16:25:33.007Z,25.10
2023-05-19T16:27:59.686Z,25.10
2023-05-19T16:30:27.999Z,24.90
2023-05-19T16:32:54.984Z,24.50
2023-05-19T16:35:21.909Z,24.20
2023-05-19T16:37:49.057Z,24.30
2023-05-19T16:40:15.686Z,24.60
2023-05-19T16:42:43.936Z,24.90
2023-05-19T16:45:12.608Z,25.10
2023-05-19T16:47:39.292Z,25.30
2023-05-19T16:50:06.761Z,25.30
2023-05-19T16:52:34.483Z,25.30
2023-05-19T16:55:01.172Z,25.50
2023-05-19T16:57:28.075Z,25.70
2023-05-19T16:59:56.618Z,25.90
2023-05-19T17:02:23.674Z,26.10
2023-05-19T17:04:50.487Z,26.10
2023-05-19T17:07:17.867Z,25.70
2023-05-19T17:09:44.759Z,25.80
2023-05-19T17:12:12.081Z,25.90
2023-05-19T17:14:38.829Z,26.10
2023-05-19T17:17:05.590Z,25.40
2023-05-19T17:19:32.358Z,25.40
2023-05-19T17:21:59.042Z,25.80
2023-05-19T17:24:25.739Z,26.30
2023-05-19T17:26:52.365Z,26.10
2023-05-19T17:29:18.930Z,26.30
2023-05-19T17:31:45.858Z,26.60
2023-05-19T17:34:13.026Z,27.00
2023-05-19T17:36:39.637Z,26.50
2023-05-19T17:39:07.232Z,26.10
2023-05-19T17:41:33.910Z,25.80
2023-05-19T17:44:00.775Z,26.20
2023-05-19T17:46:29.982Z,26.40
2023-05-19T17:48:56.599Z,26.10
2023-05-19T17:51:23.503Z,25.80
2023-05-19T17:53:50.513Z,25.70
2023-05-19T17:56:19.464Z,25.80
2023-05-19T17:58:46.911Z,25.70
2023-05-19T18:01:14.465Z,25.20
2023-05-19T18:03:43.370Z,24.70
2023-05-19T18:06:11.873Z,24.80
2023-05-19T18:08:39.455Z,24.80
2023-05-19T18:11:06.455Z,24.10
2023-05-19T18:13:33.135Z,24.20
2023-05-19T18:16:01.444Z,24.50
2023-05-19T18:18:28.076Z,23.70
2023-05-19T18:20:54.860Z,23.50
2023-05-19T18:23:22.496Z,23.30
2023-05-19T18:25:53.588Z,23.10
2023-05-19T18:28:20.437Z,23.30
2023-05-19T18:30:47.029Z,23.70
2023-05-19T18:33:14.055Z,23.50
2023-05-19T18:35:40.766Z,23.50
2023-05-19T18:38:07.472Z,23.90
2023-05-19T18:40:34.304Z,24.00
2023-05-19T18:43:01.103Z,24.00
2023-05-19T18:45:27.707Z,23.90
2023-05-19T18:47:54.326Z,23.90
2023-05-19T18:50:20.992Z,23.80
2023-05-19T18:52:47.614Z,23.30
2023-05-19T18:55:14.318Z,22.60
2023-05-19T18:57:41.799Z,22.50
2023-05-19T19:00:09.039Z,21.90
2023-05-19T19:02:38.820Z,21.80
2023-05-19T19:05:09.324Z,21.60
2023-05-19T19:07:44.350Z,21.40
2023-05-19T19:10:13.250Z,21.00
2023-05-19T19:12:41.921Z,20.90
2023-05-19T19:15:09.118Z,20.90
2023-05-19T19:17:35.937Z,20.90
2023-05-19T19:20:03.792Z,20.90
2023-05-19T19:22:30.420Z,20.50
2023-05-19T19:24:57.003Z,20.30
2023-05-19T19:27:24.739Z,20.30
2023-05-19T19:29:51.350Z,20.40
2023-05-19T19:32:20.033Z,20.20
2023-05-19T19:34:46.726Z,20.20
2023-05-19T19:37:16.418Z,20.10
2023-05-19T19:39:43.056Z,19.80
2023-05-19T19:42:09.718Z,19.70
2023-05-19T19:44:37.452Z,19.60
2023-05-19T19:47:09.646Z,19.80
2023-05-19T19:49:36.512Z,19.90
2023-05-19T19:52:03.325Z,19.70
2023-05-19T19:54:29.898Z,19.50
2023-05-19T19:56:58.453Z,19.50
2023-05-19T19:59:25.523Z,19.50
2023-05-19T20:01:53.213Z,19.40
2023-05-19T20:04:19.968Z,19.50
2023-05-19T20:06:46.729Z,19.40
2023-05-19T20:09:13.326Z,19.20
2023-05-19T20:11:39.957Z,19.20
2023-05-19T20:14:06.523Z,19.00
2023-05-19T20:16:33.186Z,19.20
2023-05-19T20:18:59.906Z,19.20
2023-05-19T20:21:26.771Z,19.30
2023-05-19T20:23:53.452Z,19.00
2023-05-19T20:26:20.572Z,19.00
2023-05-19T20:28:47.225Z,18.90
2023-05-19T20:31:14.263Z,18.70
2023-05-19T20:33:40.895Z,18.70
2023-05-19T20:36:07.722Z,18.80
2023-05-19T20:38:34.385Z,18.80
2023-05-19T20:41:02.296Z,18.70
2023-05-19T20:43:28.892Z,18.40
2023-05-19T20:45:57.719Z,18.20
2023-05-19T20:48:24.472Z,18.20
2023-05-19T20:50:51.882Z,17.90
2023-05-19T20:53:19.637Z,17.90
2023-05-19T20:55:46.224Z,18.00
2023-05-19T20:58:12.963Z,17.70
2023-05-19T21:00:39.594Z,17.60
2023-05-19T21:03:06.443Z,17.70
2023-05-19T21:05:33.214Z,17.50
2023-05-19T21:08:00.045Z,17.50
2023-05-19T21:10:26.878Z,17.60
2023-05-19T21:12:53.748Z,17.60
2023-05-19T21:15:20.649Z,17.50
2023-05-19T21:17:47.436Z,17.40
2023-05-19T21:20:15.480Z,17.40
2023-05-19T21:22:42.133Z,17.40
2023-05-19T21:25:10.459Z,17.20
2023-05-19T21:27:37.080Z,17.20
2023-05-19T21:30:05.471Z,17.20
2023-05-19T21:32:32.142Z,17.20
2023-05-19T21:34:59.874Z,17.10
2023-05-19T21:37:26.555Z,17.00
2023-05-19T21:39:53.172Z,16.80
2023-05-19T21:42:19.782Z,16.70
2023-05-19T21:44:46.521Z,16.80
2023-05-19T21:47:13.098Z,16.90
2023-05-19T21:49:40.855Z,16.80
2023-05-19T21:52:07.892Z,16.70
2023-05-19T21:54:34.949Z,16.70
2023-05-19T21:57:02.286Z,16.70
2023-05-19T21:59:29.024Z,16.80
2023-05-19T22:01:55.716Z,16.50
2023-05-19T22:04:22.570Z,16.50
2023-05-19T22:06:49.222Z,16.40
2023-05-19T22:09:15.913Z,16.20
2023-05-19T22:11:42.810Z,16.10
2023-05-19T22:14:09.432Z,16.20
2023-05-19T22:16:36.321Z,16.10
2023-05-19T22:19:03.077Z,16.50
2023-05-19T22:21:29.702Z,16.10
2023-05-19T22:23:56.443Z,16.20
2023-05-19T22:26:23.113Z,16.20
2023-05-19T22:28:50.307Z,16.10
2023-05-19T22:31:17.602Z,16.00
2023-05-19T22:33:44.361Z,15.90
2023-05-19T22:36:11.084Z,15.90
2023-05-19T22:38:37.775Z,15.90
2023-05-19T22:41:05.209Z,15.90
2023-05-19T22:43:31.792Z,15.80
2023-05-19T22:45:58.568Z,15.70
2023-05-19T22:48:25.341Z,15.60
2023-05-19T22:50:52.126Z,15.60
2023-05-19T22:53:19.076Z,15.50
2023-05-19T22:55:45.757Z,15.50
2023-05-19T22:58:12.341Z,15.50
2023-05-19T23:00:39.074Z,15.40
2023-05-19T23:03:05.821Z,15.40
2023-05-19T23:05:32.631Z,15.30
2023-05-19T23:07:59.347Z,15.30
2023-05-19T23:10:26.019Z,15.10
2023-05-19T23:12:52.648Z,15.10
2023-05-19T23:15:19.711Z,15.10
2023-05-19T23:17:46.297Z,15.00
2023-05-19T23:20:13.676Z,14.90
2023-05-19T23:22:40.358Z,14.90
2023-05-19T23:25:08.468Z,14.90
2023-05-19T23:27:36.397Z,15.00
2023-05-19T23:30:04.526Z,15.10
2023-05-19T23:32:31.212Z,15.00
2023-05-19T23:34:57.923Z,14.90
2023-05-19T23:37:24.582Z,14.80
2023-05-19T23:39:51.220Z,14.70
2023-05-19T23:42:18.228Z,14.60
2023-05-19T23:44:44.903Z,14.50
2023-05-19T23:47:11.541Z,14.20
2023-05-19T23:49:38.270Z,14.20
2023-05-19T23:52:05.165Z,14.30
2023-05-19T23:54:31.773Z,14.40
2023-05-19T23:56:58.413Z,14.20
2023-05-19T23:59:25.217Z,14.10
